Time;durP1;ratioP1;P1;durP2;ratioP2;P2;SDS_P1;SDS_P2;PMS_P1;PMS_P2;Temp;Humidity;BMP_temperature;BMP_pressure;BME280_temperature;BME280_humidity;BME280_pressure;Samples;Min_cycle;Max_cycle;Signal;HPM_P1;HPM_P2
2023/06/04 00:00:32;;;;;;;3.00;1.03;;;12.60;38.20;;;12.30;40.60;98057.03;5086472;28;20465;-74
2023/06/04 00:03:00;;;;;;;1.33;1.00;;;12.60;38.30;;;12.32;40.48;98065.75;5083739;28;20459;-76
2023/06/04 00:05:28;;;;;;;2.30;0.93;;;12.50;38.40;;;12.14;41.31;98058.47;5085406;28;20967;-74
2023/06/04 00:07:55;;;;;;;1.17;1.00;;;12.40;38.60;;;12.01;41.25;98051.25;5092906;28;20858;-72
2023/06/04 00:10:22;;;;;;;1.07;0.93;;;12.20;38.70;;;11.97;40.89;98047.34;5085391;28;20859;-76
2023/06/04 00:12:49;;;;;;;3.23;1.27;;;12.20;38.80;;;11.88;40.55;98039.50;5074854;28;20471;-75
2023/06/04 00:15:17;;;;;;;1.80;1.00;;;12.20;38.60;;;12.03;41.02;98046.47;5083690;28;20477;-76
2023/06/04 00:17:45;;;;;;;2.30;1.20;;;12.20;38.50;;;12.07;41.11;98036.03;5079730;28;20554;-75
2023/06/04 00:20:14;;;;;;;1.47;1.37;;;12.30;38.60;;;11.97;40.64;98022.97;5091269;28;20468;-76
2023/06/04 00:22:42;;;;;;;1.07;0.93;;;12.30;38.40;;;12.13;40.87;98040.53;5087433;28;20578;-74
2023/06/04 00:25:09;;;;;;;2.00;0.90;;;12.40;38.60;;;12.07;41.19;98031.44;5085100;28;20492;-73
2023/06/04 00:27:37;;;;;;;1.47;0.70;;;12.40;38.50;;;12.05;41.22;98033.53;5081890;28;20608;-74
2023/06/04 00:30:06;;;;;;;1.27;0.90;;;12.40;38.50;;;12.02;41.38;98040.25;5087064;28;20461;-73
2023/06/04 00:32:36;;;;;;;1.23;1.13;;;12.30;38.70;;;11.96;41.53;98040.28;5089685;28;20498;-73
2023/06/04 00:35:05;;;;;;;2.27;1.33;;;12.30;38.90;;;11.89;41.58;98034.94;5096478;28;20548;-76
2023/06/04 00:37:33;;;;;;;1.70;0.67;;;12.20;38.70;;;11.97;41.57;98034.63;5087051;28;20457;-77
2023/06/04 00:40:01;;;;;;;1.40;1.10;;;12.30;38.80;;;11.96;41.41;98040.28;5096972;28;20464;-76
2023/06/04 00:42:28;;;;;;;1.53;1.30;;;12.30;38.80;;;11.87;41.30;98043.25;5100660;28;20457;-75
2023/06/04 00:44:57;;;;;;;3.43;1.27;;;12.20;38.80;;;11.82;41.92;98035.00;5096166;28;20457;-74
2023/06/04 00:47:25;;;;;;;2.90;1.10;;;12.20;38.70;;;11.92;41.32;98041.78;5108983;27;20540;-75
2023/06/04 00:49:59;;;;;;;1.33;0.90;;;12.30;38.70;;;11.92;41.46;98044.50;5098859;28;20556;-77
2023/06/04 00:52:27;;;;;;;1.43;1.10;;;12.20;38.60;;;11.93;41.30;98044.25;5100924;28;20454;-75
2023/06/04 00:54:56;;;;;;;0.97;0.90;;;12.30;38.80;;;11.93;41.65;98043.44;5083412;28;20481;-78
2023/06/04 00:57:23;;;;;;;1.63;0.80;;;12.30;38.80;;;11.89;41.72;98033.03;5085703;28;20459;-76
2023/06/04 00:59:50;;;;;;;1.13;1.00;;;12.30;38.70;;;11.83;41.58;98042.06;5083493;28;20461;-75
2023/06/04 01:02:22;;;;;;;1.03;0.90;;;12.30;38.70;;;11.86;41.58;98035.38;5088466;28;20743;-76
2023/06/04 01:05:00;;;;;;;2.90;1.30;;;12.30;38.80;;;11.85;41.87;98042.66;5087759;28;20829;-74
2023/06/04 01:07:28;;;;;;;1.43;1.13;;;12.20;38.80;;;11.82;41.64;98047.69;5097855;28;20457;-74
2023/06/04 01:09:58;;;;;;;1.80;1.00;;;12.20;38.90;;;11.76;42.19;98052.13;5085540;28;20455;-74
2023/06/04 01:12:25;;;;;;;1.90;1.30;;;12.20;38.90;;;11.69;41.99;98032.41;5101428;28;20480;-77
2023/06/04 01:14:52;;;;;;;2.37;1.40;;;12.10;38.90;;;11.75;41.71;98042.34;5093124;28;21007;-75
2023/06/04 01:17:28;;;;;;;3.13;1.27;;;12.20;38.90;;;11.76;42.31;98049.44;5085927;28;20457;-76
2023/06/04 01:20:20;;;;;;;2.00;1.10;;;12.10;39.00;;;11.64;42.65;98032.25;5088531;28;20538;-75
2023/06/04 01:23:06;;;;;;;1.17;0.80;;;12.10;39.10;;;11.67;41.99;98048.03;5096871;28;20454;-77
2023/06/04 01:25:38;;;;;;;2.73;1.60;;;12.00;39.00;;;11.64;41.97;98038.47;5082193;28;20460;-74
2023/06/04 01:28:10;;;;;;;1.73;1.10;;;12.00;38.90;;;11.63;42.38;98053.06;5097578;28;20460;-76
2023/06/04 01:30:42;;;;;;;1.73;1.10;;;12.00;38.90;;;11.68;42.59;98049.69;5083636;28;20537;-74
2023/06/04 01:33:10;;;;;;;0.83;0.80;;;12.00;39.10;;;11.51;42.14;98047.53;5086703;28;20453;-77
2023/06/04 01:35:38;;;;;;;1.27;1.10;;;12.00;39.10;;;11.51;42.20;98050.25;5093616;28;20505;-75
2023/06/04 01:38:06;;;;;;;1.07;0.77;;;11.90;39.20;;;11.34;43.37;98039.97;5085813;28;20460;-76
2023/06/04 01:40:35;;;;;;;2.80;1.50;;;11.80;39.60;;;11.07;44.18;98050.16;5086228;28;20466;-78
2023/06/04 01:43:03;;;;;;;1.40;0.90;;;11.50;39.60;;;10.94;44.11;98061.88;5078904;28;20988;-76
2023/06/04 01:45:31;;;;;;;1.30;1.00;;;11.30;39.80;;;10.92;44.34;98063.97;5083193;28;20463;-75
2023/06/04 01:47:58;;;;;;;1.83;1.30;;;11.20;39.90;;;10.89;44.04;98065.22;5096586;28;20465;-74
2023/06/04 01:50:26;;;;;;;1.47;0.80;;;11.20;40.10;;;10.89;44.11;98073.31;5104444;28;20455;-74
2023/06/04 01:52:54;;;;;;;1.80;1.10;;;11.20;40.00;;;10.93;44.58;98068.31;5092378;28;21308;-74
2023/06/04 01:55:21;;;;;;;1.13;0.93;;;11.20;40.00;;;10.86;44.20;98067.53;5087906;28;20511;-78
2023/06/04 01:57:51;;;;;;;1.70;1.13;;;11.20;39.80;;;10.93;44.63;98059.41;5092542;28;20460;-75
2023/06/04 02:00:19;;;;;;;0.80;0.70;;;11.30;39.90;;;10.98;43.98;98064.97;5083161;28;20457;-79
2023/06/04 02:02:47;;;;;;;1.30;1.00;;;11.30;40.00;;;10.93;44.45;98064.81;5086354;28;20453;-78
2023/06/04 02:05:16;;;;;;;1.17;0.90;;;11.20;39.90;;;10.70;44.49;98067.00;5090252;28;20461;-76
2023/06/04 02:07:47;;;;;;;2.60;1.30;;;11.00;40.10;;;10.74;45.12;98072.78;5110041;27;20547;-79
2023/06/04 02:10:16;;;;;;;1.10;1.00;;;11.00;40.40;;;10.70;45.99;98072.41;5093336;28;20910;-75
2023/06/04 02:12:58;;;;;;;2.87;1.13;;;10.90;40.60;;;10.54;45.78;98079.09;5092342;28;20459;-73
2023/06/04 02:15:26;;;;;;;1.53;1.23;;;10.80;40.70;;;10.57;46.11;98078.66;5094074;28;20476;-75
2023/06/04 02:17:59;;;;;;;0.93;0.83;;;10.90;40.60;;;10.63;45.23;98075.13;5103268;27;20468;-76
2023/06/04 02:20:26;;;;;;;2.23;1.20;;;10.90;40.60;;;10.61;45.87;98081.78;5084654;28;20461;-78
2023/06/04 02:22:55;;;;;;;2.63;1.00;;;10.80;40.60;;;10.59;45.22;98084.69;5098583;28;20456;-73
2023/06/04 02:25:23;;;;;;;1.10;1.00;;;10.90;40.60;;;10.49;45.19;98085.16;5100834;27;20827;-75
2023/06/04 02:27:50;;;;;;;4.33;1.20;;;10.80;40.50;;;10.38;45.75;98057.94;5087355;28;20453;-72
2023/06/04 02:30:19;;;;;;;1.90;1.10;;;10.80;40.80;;;10.40;46.15;98085.56;5101428;27;20450;-76
2023/06/04 02:32:46;;;;;;;2.03;1.10;;;10.70;40.80;;;10.42;45.22;98076.25;5092094;28;20453;-76
2023/06/04 02:35:14;;;;;;;1.40;1.30;;;10.70;40.70;;;10.51;45.49;98081.41;5088727;28;20478;-76
2023/06/04 02:37:41;;;;;;;6.07;1.60;;;10.70;41.00;;;10.27;45.93;98065.66;5100145;28;20527;-77
2023/06/04 02:40:10;;;;;;;1.67;0.97;;;10.70;40.90;;;10.42;45.61;98087.06;5084791;28;20476;-74
2023/06/04 02:42:37;;;;;;;2.20;1.00;;;10.70;40.90;;;10.44;45.37;98089.53;5093799;28;20585;-78
2023/06/04 02:45:06;;;;;;;2.70;1.30;;;10.70;40.80;;;10.38;46.44;98088.47;5087342;28;20510;-78
2023/06/04 02:47:34;;;;;;;2.27;1.30;;;10.70;40.80;;;10.41;45.95;98090.78;5086747;28;20467;-78
2023/06/04 02:50:03;;;;;;;1.60;0.90;;;10.70;40.80;;;10.30;46.33;98077.91;5093006;28;20459;-80
2023/06/04 02:52:32;;;;;;;1.23;1.07;;;10.60;40.80;;;10.41;45.97;98081.84;5083854;28;20480;-76
2023/06/04 02:55:03;;;;;;;3.07;1.00;;;10.70;40.80;;;10.31;45.66;98076.88;5095552;28;20521;-74
2023/06/04 02:57:31;;;;;;;1.30;1.00;;;10.70;40.90;;;10.33;46.92;98083.72;5089227;28;21095;-73
2023/06/04 02:59:58;;;;;;;1.43;1.00;;;10.70;41.00;;;10.08;46.16;98059.25;5077967;28;20545;-75
2023/06/04 03:02:25;;;;;;;0.90;0.60;;;10.60;40.90;;;10.35;45.88;98088.91;5089699;28;20488;-76
2023/06/04 03:04:55;;;;;;;1.00;0.60;;;10.70;41.10;;;10.28;46.58;98085.41;5085334;28;20537;-76
2023/06/04 03:07:22;;;;;;;1.40;0.97;;;10.60;41.10;;;9.98;47.33;98067.78;5089742;28;20849;-74
2023/06/04 03:09:49;;;;;;;2.03;1.20;;;10.50;41.20;;;10.28;47.22;98090.81;5091837;28;20494;-78
2023/06/04 03:12:17;;;;;;;1.50;1.10;;;10.50;41.40;;;10.13;46.98;98089.16;5088964;28;20517;-74
2023/06/04 03:14:44;;;;;;;1.80;1.50;;;10.50;41.40;;;10.02;46.61;98066.34;5088879;28;20451;-74
2023/06/04 03:17:12;;;;;;;1.63;1.20;;;10.50;41.30;;;10.11;46.97;98085.84;5085652;28;20486;-74
2023/06/04 03:19:42;;;;;;;1.10;0.90;;;10.50;41.30;;;10.08;47.09;98094.34;5076166;28;20512;-73
2023/06/04 03:22:11;;;;;;;1.83;1.20;;;10.40;41.40;;;10.15;46.51;98095.19;5088462;28;21026;-76
2023/06/04 03:24:40;;;;;;;1.47;0.87;;;10.50;41.50;;;10.15;46.92;98091.63;5081178;28;20509;-75
2023/06/04 03:27:09;;;;;;;1.80;1.23;;;10.50;41.50;;;10.02;47.23;98082.56;5085483;28;20579;-73
2023/06/04 03:29:38;;;;;;;1.93;1.27;;;10.50;41.50;;;9.98;47.87;98091.28;5079676;28;20475;-74
2023/06/04 03:32:07;;;;;;;1.17;1.03;;;10.40;41.70;;;10.11;47.50;98096.66;5095168;28;21020;-73
2023/06/04 03:34:34;;;;;;;1.33;1.20;;;10.40;41.80;;;9.99;47.35;98072.16;5090100;28;20491;-74
2023/06/04 03:37:02;;;;;;;0.80;0.70;;;10.50;41.90;;;9.99;48.21;98104.53;5105057;27;20473;-74
2023/06/04 03:39:31;;;;;;;1.73;1.30;;;10.40;42.00;;;10.20;47.32;98095.38;5097668;28;20542;-74
2023/06/04 03:41:58;;;;;;;2.10;0.87;;;10.50;42.20;;;10.13;48.14;98097.28;5089527;28;20457;-75
2023/06/04 03:44:25;;;;;;;1.30;0.90;;;10.50;42.20;;;10.23;47.50;98099.53;5077654;28;20455;-76
2023/06/04 03:46:53;;;;;;;1.53;1.27;;;10.60;42.20;;;10.18;47.65;98100.16;5093562;28;20450;-74
2023/06/04 03:49:21;;;;;;;2.47;1.00;;;10.50;42.10;;;10.25;48.10;98107.44;5091817;28;20459;-72
2023/06/04 03:51:49;;;;;;;1.30;1.13;;;10.60;42.20;;;10.09;49.18;98116.78;5090582;28;20628;-75
2023/06/04 03:54:17;;;;;;;1.27;0.97;;;10.50;42.40;;;10.13;48.36;98109.94;5093515;28;20464;-74
2023/06/04 03:56:47;;;;;;;2.93;1.13;;;10.50;42.70;;;10.19;49.48;98109.91;5085524;28;20557;-79
2023/06/04 03:59:14;;;;;;;1.93;1.23;;;10.50;43.20;;;10.20;49.09;98108.88;5085420;28;21041;-76
2023/06/04 04:01:42;;;;;;;1.43;1.23;;;10.50;42.90;;;10.32;48.17;98109.06;5078698;28;20475;-75
2023/06/04 04:04:10;;;;;;;1.30;1.10;;;10.60;42.80;;;11.10;47.17;98111.91;5093028;28;20449;-80
2023/06/04 04:06:37;;;;;;;1.50;1.20;;;11.20;42.80;;;12.12;44.05;98088.47;5084897;28;20515;-78
2023/06/04 04:09:05;;;;;;;1.07;0.90;;;12.30;42.00;;;13.15;41.51;98092.47;5089947;28;20455;-75
2023/06/04 04:11:33;;;;;;;2.33;1.30;;;13.40;41.10;;;14.13;39.74;98100.31;5081476;28;20490;-78
2023/06/04 04:14:02;;;;;;;1.97;1.40;;;14.60;40.30;;;14.96;38.44;98112.97;5082886;28;20469;-79
2023/06/04 04:16:29;;;;;;;1.90;1.40;;;15.50;39.80;;;15.02;38.31;98103.84;5078980;28;20470;-75
2023/06/04 04:18:56;;;;;;;2.17;1.30;;;16.10;39.20;;;15.63;36.95;98094.31;5087529;28;20466;-73
2023/06/04 04:21:24;;;;;;;1.10;0.87;;;16.60;38.90;;;16.20;35.76;98097.13;5086717;28;20850;-74
2023/06/04 04:23:52;;;;;;;3.20;1.37;;;17.00;38.20;;;16.40;35.33;98099.31;5086698;28;20524;-75
2023/06/04 04:26:21;;;;;;;1.07;0.97;;;17.30;38.10;;;16.54;34.33;98042.50;5082804;28;20454;-75
2023/06/04 04:28:48;;;;;;;1.20;1.00;;;17.80;37.90;;;16.33;35.80;98094.06;5078002;28;20471;-76
2023/06/04 04:31:18;;;;;;;2.80;1.13;;;17.50;37.70;;;16.55;34.95;98093.25;5084667;28;20955;-76
2023/06/04 04:33:45;;;;;;;1.90;1.40;;;17.60;37.70;;;16.41;34.87;98099.06;5088830;28;20455;-77
2023/06/04 04:36:13;;;;;;;1.13;1.03;;;17.70;37.40;;;16.37;34.94;98089.72;5088246;28;20470;-74
2023/06/04 04:38:42;;;;;;;1.47;1.20;;;17.60;37.50;;;17.08;34.17;98095.53;5094786;28;20641;-76
2023/06/04 04:41:09;;;;;;;1.67;1.07;;;17.90;37.70;;;16.75;34.82;98091.84;5082143;28;20449;-73
2023/06/04 04:43:39;;;;;;;1.53;1.10;;;18.10;37.60;;;17.02;34.49;98102.00;5087442;28;20464;-74
2023/06/04 04:46:07;;;;;;;1.60;1.37;;;18.10;37.70;;;16.72;34.99;98112.28;5087220;28;20486;-75
2023/06/04 04:48:36;;;;;;;1.63;1.33;;;17.90;37.60;;;16.35;36.04;98110.97;5082989;28;20479;-73
2023/06/04 04:51:03;;;;;;;2.13;1.30;;;18.00;37.90;;;17.13;34.30;98117.44;5084755;28;20452;-68
2023/06/04 04:53:30;;;;;;;1.33;1.13;;;18.50;37.80;;;17.58;34.44;98117.34;5084639;28;20570;-71
2023/06/04 04:55:58;;;;;;;1.73;1.10;;;18.50;38.00;;;17.64;34.18;98116.28;5081021;28;20470;-66
2023/06/04 04:58:26;;;;;;;1.80;1.10;;;18.50;37.90;;;17.06;34.68;98108.59;5079571;28;20858;-66
2023/06/04 05:00:53;;;;;;;2.80;1.13;;;18.30;37.60;;;18.52;32.32;98116.97;5086185;28;20740;-68
2023/06/04 05:03:20;;;;;;;1.63;1.53;;;19.10;37.60;;;19.01;31.33;98112.28;5081380;28;20952;-65
2023/06/04 05:05:49;;;;;;;1.20;1.10;;;19.80;37.20;;;18.55;32.22;98116.41;5086156;28;20524;-69
2023/06/04 05:08:16;;;;;;;1.40;1.10;;;19.70;37.10;;;18.98;31.52;98125.38;5076163;28;20448;-67
2023/06/04 05:10:43;;;;;;;1.17;1.00;;;20.00;37.20;;;18.82;32.19;98126.41;5078878;28;20524;-67
2023/06/04 05:13:11;;;;;;;2.60;1.30;;;20.00;37.10;;;18.93;32.02;98124.53;5102623;28;20443;-67
2023/06/04 05:15:40;;;;;;;1.60;1.50;;;20.30;37.20;;;20.15;30.26;98118.72;5090481;28;20455;-68
2023/06/04 05:18:07;;;;;;;1.83;1.00;;;20.70;37.20;;;20.12;30.26;98041.69;5096483;28;20807;-64
2023/06/04 05:20:37;;;;;;;2.00;1.20;;;21.00;37.30;;;20.08;31.06;98123.69;5088381;28;20452;-66
2023/06/04 05:23:06;;;;;;;1.67;1.30;;;21.20;37.40;;;19.27;31.51;98143.31;5089122;28;20547;-67
2023/06/04 05:25:36;;;;;;;2.37;1.30;;;21.00;36.80;;;19.38;31.23;98141.41;5086507;28;20973;-65
2023/06/04 05:28:05;;;;;;;1.67;1.57;;;20.90;36.90;;;19.70;31.33;98129.41;5084362;28;20551;-62
2023/06/04 05:30:33;;;;;;;1.57;1.47;;;20.80;37.20;;;19.95;31.27;98130.56;5087515;28;20477;-66
2023/06/04 05:33:01;;;;;;;2.00;1.37;;;20.80;37.40;;;19.78;30.88;98139.81;5086042;28;20822;-64
2023/06/04 05:35:28;;;;;;;2.67;0.93;;;21.10;37.00;;;19.61;31.39;98144.75;5078764;28;21593;-65
2023/06/04 05:37:55;;;;;;;1.70;1.50;;;21.00;37.20;;;19.05;31.76;98146.25;5083329;28;20847;-65
2023/06/04 05:40:24;;;;;;;1.27;1.00;;;20.50;36.90;;;18.87;32.73;98144.78;5086109;28;20553;-76
2023/06/04 05:42:52;;;;;;;2.60;1.40;;;19.80;37.30;;;19.58;31.74;98148.03;5089354;28;20490;-72
2023/06/04 05:45:19;;;;;;;1.40;1.07;;;20.50;37.60;;;19.95;31.83;98149.75;5080516;28;20494;-74
2023/06/04 05:47:46;;;;;;;1.60;1.30;;;20.80;37.90;;;20.60;30.05;98145.53;5088161;28;20553;-72
2023/06/04 05:50:13;;;;;;;1.67;1.30;;;21.30;37.00;;;20.15;31.22;98148.91;5092596;28;20515;-70
2023/06/04 05:52:41;;;;;;;2.20;1.30;;;21.60;37.50;;;20.75;30.11;98152.94;5067799;28;20471;-74
2023/06/04 05:55:10;;;;;;;1.50;1.20;;;21.60;37.20;;;20.10;30.51;98146.16;5084111;28;20444;-67
2023/06/04 05:57:38;;;;;;;1.23;0.97;;;21.60;36.60;;;19.37;31.44;98159.75;5081373;27;20574;-69
2023/06/04 06:00:10;;;;;;;1.93;1.30;;;20.90;36.80;;;19.17;31.74;98149.56;5088893;28;20491;-68
2023/06/04 06:02:38;;;;;;;1.07;0.93;;;20.50;36.90;;;18.36;32.90;98157.09;5089695;28;20829;-68
2023/06/04 06:05:08;;;;;;;1.40;1.20;;;19.80;37.10;;;18.60;33.22;98157.50;5083345;28;20917;-67
2023/06/04 06:07:35;;;;;;;1.27;0.90;;;19.50;38.00;;;19.04;32.52;98155.56;5080254;28;20507;-68
2023/06/04 06:10:02;;;;;;;1.20;1.10;;;20.00;37.70;;;18.74;33.05;98157.84;5101414;27;20453;-70
2023/06/04 06:12:30;;;;;;;1.03;0.90;;;19.90;37.70;;;18.55;33.70;98157.47;5090796;28;20451;-69
2023/06/04 06:14:58;;;;;;;1.53;1.20;;;19.60;37.90;;;18.56;33.50;98159.09;5074463;28;21062;-69
2023/06/04 06:17:26;;;;;;;2.53;1.10;;;19.70;37.70;;;18.60;33.41;98168.44;5072290;28;20474;-69
2023/06/04 06:19:54;;;;;;;1.93;1.50;;;19.60;37.90;;;18.48;33.59;98159.63;5078727;28;20515;-68
2023/06/04 06:22:21;;;;;;;1.30;1.20;;;19.70;38.40;;;19.05;33.28;98165.41;5099127;27;20451;-67
2023/06/04 06:24:49;;;;;;;1.17;0.83;;;20.00;38.10;;;18.44;34.17;98159.31;5089559;28;20505;-70
2023/06/04 06:27:17;;;;;;;2.17;1.50;;;19.70;37.90;;;17.58;35.96;98174.69;5081102;28;20466;-69
2023/06/04 06:29:44;;;;;;;2.80;1.17;;;18.80;38.60;;;17.06;36.76;98174.94;5081140;28;20654;-68
2023/06/04 06:32:13;;;;;;;1.90;1.13;;;17.90;38.80;;;16.72;37.51;98180.47;5091431;28;20705;-69
2023/06/04 06:34:41;;;;;;;3.47;1.60;;;17.40;39.30;;;16.25;38.03;98170.78;5082707;28;20482;-68
2023/06/04 06:37:08;;;;;;;1.67;1.17;;;17.00;39.40;;;16.24;38.69;98169.13;5095212;27;20480;-69
2023/06/04 06:39:35;;;;;;;1.50;1.40;;;16.80;40.00;;;15.70;38.82;98173.16;5084901;28;20516;-68
2023/06/04 06:42:02;;;;;;;1.37;1.10;;;16.30;39.70;;;15.72;39.10;98163.63;5096674;27;20453;-71
2023/06/04 06:44:29;;;;;;;2.03;0.90;;;16.30;40.00;;;15.73;39.01;98172.66;5087320;28;20834;-69
2023/06/04 06:46:57;;;;;;;1.10;1.00;;;16.20;40.10;;;15.63;39.36;98142.50;5092464;28;20464;-69
2023/06/04 06:49:25;;;;;;;1.77;1.30;;;16.20;40.40;;;15.95;39.52;98175.50;5081245;28;20462;-71
2023/06/04 06:51:52;;;;;;;1.83;1.50;;;16.30;40.40;;;15.78;39.58;98175.44;5084283;28;21162;-72
2023/06/04 06:54:21;;;;;;;2.93;1.50;;;16.30;40.30;;;15.94;39.71;98171.13;5087729;28;20471;-72
2023/06/04 06:56:50;;;;;;;1.43;1.33;;;16.30;40.60;;;16.00;39.33;98183.75;5092140;28;20484;-71
2023/06/04 06:59:17;;;;;;;1.60;1.50;;;16.40;40.40;;;16.17;39.18;98179.41;5089622;28;20508;-69
2023/06/04 07:01:44;;;;;;;1.97;1.30;;;16.50;40.70;;;16.48;39.14;98180.69;5084906;28;20554;-70
2023/06/04 07:04:12;;;;;;;1.63;1.03;;;16.70;41.20;;;16.62;38.87;98183.91;5080059;28;20546;-68
2023/06/04 07:06:41;;;;;;;1.23;1.13;;;16.90;41.00;;;16.58;39.05;98180.00;5082498;28;21094;-69
2023/06/04 07:09:09;;;;;;;2.43;1.40;;;16.90;40.70;;;16.69;38.96;98178.25;5080196;28;20514;-72
2023/06/04 07:11:37;;;;;;;1.50;1.23;;;17.00;40.70;;;16.88;38.49;98176.03;5082449;28;20653;-68
2023/06/04 07:14:04;;;;;;;1.47;1.00;;;17.10;40.90;;;17.04;38.10;98182.56;5065064;28;20462;-69
2023/06/04 07:16:32;;;;;;;3.60;1.23;;;17.30;40.90;;;17.22;37.94;98178.69;5084411;28;20475;-69
2023/06/04 07:18:59;;;;;;;1.90;1.43;;;17.40;40.90;;;17.10;38.51;98135.13;5094283;28;20501;-69
2023/06/04 07:21:26;;;;;;;3.40;1.20;;;17.60;41.20;;;17.33;38.69;98195.19;5085717;28;20540;-68
2023/06/04 07:23:55;;;;;;;2.60;1.27;;;17.60;41.10;;;17.07;38.29;98115.75;5082090;28;20458;-69
2023/06/04 07:26:25;;;;;;;2.00;1.40;;;17.70;41.20;;;17.60;38.02;98178.84;5080820;28;20470;-71
2023/06/04 07:28:52;;;;;;;1.30;1.20;;;17.90;41.10;;;17.76;37.62;98179.78;5082779;28;21245;-70
2023/06/04 07:31:19;;;;;;;2.60;1.50;;;18.00;41.00;;;17.57;37.69;98187.50;5076772;28;20448;-69
2023/06/04 07:33:46;;;;;;;2.57;1.17;;;17.90;40.60;;;17.51;37.76;98181.16;5084665;28;20453;-68
2023/06/04 07:36:14;;;;;;;2.10;1.27;;;17.90;40.80;;;17.77;37.47;98173.25;5097422;28;20472;-69
2023/06/04 07:38:42;;;;;;;1.90;1.43;;;18.00;41.00;;;17.84;37.28;98173.88;5083925;28;20460;-69
2023/06/04 07:41:10;;;;;;;1.27;1.13;;;18.10;41.00;;;18.08;37.34;98175.47;5068923;28;20509;-69
2023/06/04 07:43:38;;;;;;;1.30;1.00;;;18.20;41.00;;;18.24;37.51;98176.41;5077408;28;20444;-69
2023/06/04 07:46:06;;;;;;;1.40;1.20;;;18.40;41.40;;;18.21;37.68;98174.19;5078179;28;20516;-67
2023/06/04 07:48:33;;;;;;;1.83;1.50;;;18.50;41.30;;;18.45;37.20;98165.63;5071610;28;20455;-70
2023/06/04 07:51:01;;;;;;;2.10;1.47;;;18.60;41.30;;;18.60;37.39;98170.34;5071447;28;20468;-68
2023/06/04 07:53:29;;;;;;;2.07;1.50;;;18.80;41.50;;;18.76;36.75;98182.22;5089881;28;20455;-68
2023/06/04 07:55:58;;;;;;;1.20;1.10;;;18.90;41.30;;;18.65;36.97;98175.84;5081825;28;20464;-68
2023/06/04 07:58:26;;;;;;;2.00;1.70;;;18.90;41.00;;;18.69;37.00;98168.78;5068881;28;20490;-70
2023/06/04 08:00:55;;;;;;;2.20;1.40;;;18.90;41.10;;;18.89;36.47;98156.28;5087572;28;20456;-70
2023/06/04 08:03:22;;;;;;;2.30;1.27;;;19.10;41.20;;;18.60;36.01;98110.16;5084025;28;21149;-70
2023/06/04 08:05:49;;;;;;;1.80;1.60;;;19.10;41.00;;;19.04;36.09;98172.78;5091352;28;20464;-69
2023/06/04 08:08:17;;;;;;;2.63;1.30;;;19.20;41.00;;;18.92;35.75;98167.53;5087119;28;21089;-68
2023/06/04 08:10:44;;;;;;;1.43;1.30;;;19.20;40.70;;;18.67;36.64;98162.75;5082027;28;21290;-70
2023/06/04 08:13:12;;;;;;;1.53;1.30;;;19.00;40.80;;;18.89;36.22;98159.00;5088267;28;20452;-68
2023/06/04 08:15:41;;;;;;;2.93;1.40;;;19.10;41.00;;;19.05;35.51;98159.94;5100130;28;20943;-69
2023/06/04 08:18:10;;;;;;;2.60;1.47;;;19.20;40.60;;;19.05;35.44;98163.50;5079558;28;20472;-71
2023/06/04 08:20:37;;;;;;;1.40;1.30;;;19.20;40.40;;;19.10;35.86;98159.94;5085199;28;20467;-69
2023/06/04 08:23:04;;;;;;;1.90;1.70;;;19.20;40.70;;;19.22;35.51;98166.03;5070456;28;20467;-71
2023/06/04 08:25:32;;;;;;;2.53;1.10;;;19.30;40.50;;;19.30;35.39;98159.22;5083671;28;20456;-70
2023/06/04 08:27:59;;;;;;;2.13;1.53;;;19.40;40.50;;;19.22;34.35;98154.22;5084232;28;20463;-70
2023/06/04 08:30:27;;;;;;;2.17;1.67;;;19.50;40.10;;;19.67;34.73;98162.84;5071121;28;21257;-70
2023/06/04 08:32:56;;;;;;;1.90;1.40;;;19.60;40.50;;;19.82;34.36;98165.63;5080748;28;20449;-70
2023/06/04 08:35:24;;;;;;;1.27;1.17;;;19.90;40.40;;;19.71;34.48;98125.56;5075668;28;20467;-69
2023/06/04 08:37:51;;;;;;;1.50;1.30;;;20.00;40.60;;;19.90;34.54;98167.00;5074242;28;20994;-69
2023/06/04 08:40:18;;;;;;;1.70;1.37;;;20.10;40.40;;;20.08;34.02;98160.16;5080352;28;20514;-69
2023/06/04 08:42:46;;;;;;;2.00;1.40;;;20.20;40.30;;;20.11;33.49;98145.06;5091850;28;20451;-69
2023/06/04 08:45:16;;;;;;;2.17;1.40;;;20.20;40.00;;;20.10;33.48;98159.88;5074684;28;20526;-70
2023/06/04 08:47:50;;;;;;;1.17;1.07;;;20.20;39.60;;;20.04;33.47;98166.47;5083091;28;20458;-70
2023/06/04 08:50:22;;;;;;;2.00;1.37;;;20.20;39.80;;;20.05;34.35;98149.72;5078871;28;20470;-70
2023/06/04 08:52:55;;;;;;;2.30;1.20;;;20.20;40.30;;;20.13;33.93;98155.78;5094268;27;20899;-70
2023/06/04 08:55:23;;;;;;;1.40;1.20;;;20.20;40.30;;;19.44;33.54;98082.78;5080803;28;21094;-70
2023/06/04 08:57:51;;;;;;;2.10;1.70;;;20.20;39.80;;;20.04;33.34;98156.31;5083416;28;21079;-69
2023/06/04 09:00:19;;;;;;;1.30;1.20;;;20.20;39.60;;;19.93;33.56;98150.00;5093168;28;20487;-70
2023/06/04 09:02:48;;;;;;;2.20;1.40;;;20.20;39.90;;;20.11;33.23;98164.28;5088992;28;20444;-71
2023/06/04 09:05:22;;;;;;;1.27;1.17;;;20.20;39.70;;;20.32;32.70;98156.84;5084519;28;20461;-69
2023/06/04 09:07:54;;;;;;;1.80;1.40;;;20.30;39.50;;;20.44;31.79;98155.75;5089584;28;20868;-71
2023/06/04 09:10:25;;;;;;;1.53;1.43;;;20.40;38.80;;;20.38;32.65;98158.47;5091135;28;20914;-66
2023/06/04 09:12:53;;;;;;;1.57;1.10;;;20.50;39.20;;;20.32;32.10;98145.88;5086701;28;20484;-69
2023/06/04 09:15:20;;;;;;;4.70;1.73;;;20.50;38.90;;;20.65;32.17;98168.31;5082921;28;20463;-70
2023/06/04 09:17:48;;;;;;;1.37;1.10;;;20.70;39.30;;;20.94;32.01;98172.41;5077612;28;20482;-77
2023/06/04 09:20:24;;;;;;;2.50;1.57;;;20.90;39.40;;;21.28;31.81;98171.69;5067656;28;20464;-70
2023/06/04 09:22:52;;;;;;;3.47;1.90;;;21.10;39.40;;;21.10;31.10;98162.16;5086503;28;20534;-69
2023/06/04 09:25:25;;;;;;;2.53;1.43;;;21.20;38.90;;;21.12;31.22;98162.69;5077821;28;20454;-69
2023/06/04 09:27:53;;;;;;;1.90;1.70;;;21.10;38.80;;;20.87;31.30;98155.38;5074052;28;20477;-69
2023/06/04 09:30:20;;;;;;;1.60;1.50;;;21.20;38.80;;;20.93;31.46;98163.31;5080143;28;20954;-71
2023/06/04 09:32:47;;;;;;;1.87;1.57;;;21.10;38.80;;;21.21;31.32;98152.78;5081849;28;20459;-68
2023/06/04 09:35:17;;;;;;;2.10;1.90;;;21.20;39.10;;;21.38;30.63;98168.06;5089577;28;20472;-69
2023/06/04 09:37:55;;;;;;;2.63;1.93;;;21.40;38.70;;;20.91;30.90;98160.03;5080259;28;21135;-75
2023/06/04 09:40:24;;;;;;;2.10;1.90;;;21.30;38.40;;;20.99;30.99;98152.31;5091979;28;20892;-69
2023/06/04 09:42:55;;;;;;;1.50;1.40;;;21.20;38.50;;;20.87;31.35;98161.72;5078383;28;22498;-68
2023/06/04 09:45:29;;;;;;;2.90;1.60;;;21.10;38.60;;;20.80;31.46;98152.91;5087560;28;20558;-70
2023/06/04 09:47:56;;;;;;;1.93;1.47;;;21.10;38.70;;;20.84;31.33;98156.75;5077161;28;20494;-69
2023/06/04 09:50:27;;;;;;;3.07;1.87;;;21.00;38.70;;;21.16;30.77;98165.72;5083518;28;20469;-68
2023/06/04 09:52:56;;;;;;;1.77;1.40;;;21.00;38.60;;;21.58;30.35;98152.56;5092373;28;20514;-69
2023/06/04 09:55:25;;;;;;;2.80;1.60;;;21.40;38.70;;;21.53;29.89;98153.41;5088007;28;20492;-69
2023/06/04 09:57:53;;;;;;;3.90;1.70;;;21.60;38.30;;;21.47;29.90;98144.41;5078518;28;20509;-69
2023/06/04 10:00:22;;;;;;;3.70;1.60;;;21.60;38.00;;;21.51;29.86;98142.72;5086955;28;20458;-68
2023/06/04 10:02:50;;;;;;;1.50;1.40;;;21.60;38.10;;;21.63;27.81;98147.84;5089566;28;20453;-69
2023/06/04 10:05:21;;;;;;;1.33;1.10;;;21.70;36.80;;;21.50;28.84;98143.81;5085958;28;20447;-70
2023/06/04 10:07:52;;;;;;;1.90;1.70;;;21.60;37.10;;;21.01;28.93;98139.16;5090793;28;20458;-71
2023/06/04 10:10:26;;;;;;;1.43;1.30;;;21.40;36.70;;;21.23;29.05;98153.31;5081059;28;20516;-70
2023/06/04 10:13:01;;;;;;;1.90;1.53;;;21.30;37.10;;;21.03;27.94;98068.28;5088533;28;20455;-69
2023/06/04 10:15:32;;;;;;;1.33;1.23;;;21.50;36.60;;;21.45;27.65;98149.34;5091740;28;20452;-68
2023/06/04 10:17:59;;;;;;;2.60;1.20;;;21.50;36.00;;;21.66;27.78;98149.25;5098100;27;20560;-70
2023/06/04 10:20:27;;;;;;;3.13;1.60;;;21.60;36.50;;;21.54;27.89;98149.59;5084402;28;20827;-70
2023/06/04 10:22:55;;;;;;;1.50;1.40;;;21.60;36.20;;;21.38;28.21;98148.84;5098755;28;20506;-70
2023/06/04 10:25:24;;;;;;;2.70;1.83;;;21.60;36.50;;;21.49;28.56;98155.94;5087468;28;20463;-71